Time;durP1;ratioP1;P1;durP2;ratioP2;P2;SDS_P1;SDS_P2;PMS_P1;PMS_P2;Temp;Humidity;BMP_temperature;BMP_pressure;BME280_temperature;BME280_humidity;BME280_pressure;Samples;Min_cycle;Max_cycle;Signal;HPM_P1;HPM_P2
2023/07/11 00:00:54;;;;;;;12.40;8.33;;;27.50;77.00;;;;;;5037089;28;20675;-63
2023/07/11 00:03:22;;;;;;;10.67;7.43;;;27.50;76.90;;;;;;5044927;28;20229;-63
2023/07/11 00:06:00;;;;;;;10.80;7.93;;;27.50;76.90;;;;;;5044541;28;20221;-63
2023/07/11 00:08:27;;;;;;;10.20;7.27;;;27.40;77.20;;;;;;5048910;28;20201;-63
2023/07/11 00:10:54;;;;;;;21.50;7.60;;;27.40;77.20;;;;;;5046525;28;20206;-63
2023/07/11 00:13:22;;;;;;;12.93;8.17;;;27.30;77.40;;;;;;5044788;28;20667;-63
2023/07/11 00:16:02;;;;;;;12.93;7.60;;;27.30;77.60;;;;;;5042897;28;20301;-63
2023/07/11 00:18:30;;;;;;;13.53;7.20;;;27.30;77.70;;;;;;5046805;28;20217;-63
2023/07/11 00:20:57;;;;;;;9.27;7.37;;;27.30;77.80;;;;;;5041201;28;20198;-63
2023/07/11 00:23:25;;;;;;;10.57;7.70;;;27.30;78.00;;;;;;5037673;28;20626;-63
2023/07/11 00:25:52;;;;;;;14.20;7.40;;;27.30;78.20;;;;;;5039603;28;20317;-63
2023/07/11 00:28:19;;;;;;;10.03;7.97;;;27.30;78.30;;;;;;5041193;28;20238;-63
2023/07/11 00:30:48;;;;;;;9.80;7.53;;;27.20;78.20;;;;;;5042043;28;20257;-63
2023/07/11 00:33:16;;;;;;;22.17;7.67;;;27.20;78.40;;;;;;5040366;28;20295;-63
2023/07/11 00:35:50;;;;;;;12.63;7.80;;;27.10;78.60;;;;;;5041729;28;20281;-64
2023/07/11 00:38:17;;;;;;;11.37;7.53;;;27.10;79.00;;;;;;5040271;28;20217;-63
2023/07/11 00:40:47;;;;;;;11.47;7.30;;;27.10;79.20;;;;;;5044717;28;20199;-63
2023/07/11 00:43:18;;;;;;;8.90;6.83;;;27.10;79.20;;;;;;5043765;28;20288;-63
2023/07/11 00:46:18;;;;;;;10.13;6.37;;;27.00;79.10;;;;;;5050734;28;20210;-63
2023/07/11 00:48:57;;;;;;;11.83;8.27;;;27.00;79.40;;;;;;5035880;28;20203;-63
2023/07/11 00:51:33;;;;;;;11.20;7.50;;;27.00;79.40;;;;;;5060510;28;20242;-63
2023/07/11 00:54:04;;;;;;;12.27;7.90;;;26.90;79.70;;;;;;5040377;28;20218;-63
2023/07/11 00:56:36;;;;;;;10.87;7.43;;;26.90;80.00;;;;;;5038426;28;20210;-63
2023/07/11 00:59:04;;;;;;;8.93;6.83;;;26.90;80.10;;;;;;5032673;28;20345;-63
2023/07/11 01:01:31;;;;;;;11.70;7.97;;;26.80;80.10;;;;;;5028251;28;20200;-63
2023/07/11 01:03:59;;;;;;;8.30;6.77;;;26.80;80.30;;;;;;5043160;28;20207;-63
2023/07/11 01:06:29;;;;;;;8.27;7.37;;;26.90;80.60;;;;;;5044061;28;20219;-63
2023/07/11 01:08:58;;;;;;;8.07;7.13;;;26.80;80.70;;;;;;5036274;28;20203;-63
2023/07/11 01:11:29;;;;;;;9.13;7.30;;;26.80;80.80;;;;;;5022180;28;20241;-63
2023/07/11 01:13:56;;;;;;;9.67;7.53;;;26.80;81.00;;;;;;5058070;28;20294;-63
2023/07/11 01:16:23;;;;;;;9.87;7.70;;;26.80;81.20;;;;;;5044892;28;20210;-63
2023/07/11 01:18:51;;;;;;;11.23;7.60;;;26.70;81.30;;;;;;5045544;28;20206;-63
2023/07/11 01:21:19;;;;;;;8.20;7.33;;;26.70;81.30;;;;;;5035706;28;20268;-63
2023/07/11 01:23:47;;;;;;;8.17;7.37;;;26.70;81.60;;;;;;5044144;28;20209;-63
2023/07/11 01:26:15;;;;;;;9.83;7.43;;;26.70;81.90;;;;;;5048267;28;20227;-63
2023/07/11 01:28:42;;;;;;;9.80;7.83;;;26.60;82.00;;;;;;5027981;28;20233;-63
2023/07/11 01:31:09;;;;;;;9.70;7.60;;;26.60;82.10;;;;;;5038365;28;20201;-63
2023/07/11 01:33:36;;;;;;;9.80;8.43;;;26.50;82.10;;;;;;5016438;28;20200;-63
2023/07/11 01:36:03;;;;;;;19.27;8.63;;;26.50;82.10;;;;;;5019417;28;20207;-63
2023/07/11 01:38:31;;;;;;;9.10;8.10;;;26.50;82.30;;;;;;5036752;28;20269;-63
2023/07/11 01:40:58;;;;;;;9.07;8.13;;;26.50;82.40;;;;;;5021920;28;20284;-63
2023/07/11 01:43:26;;;;;;;9.50;7.90;;;26.50;82.60;;;;;;5027367;28;20201;-63
2023/07/11 01:45:53;;;;;;;11.53;8.80;;;26.40;82.70;;;;;;5026991;28;20265;-63
2023/07/11 01:48:20;;;;;;;8.83;8.03;;;26.40;82.90;;;;;;5019374;28;20199;-63
2023/07/11 01:50:48;;;;;;;9.37;8.30;;;26.40;83.00;;;;;;5026747;28;20264;-63
2023/07/11 01:53:15;;;;;;;12.87;8.93;;;26.40;82.80;;;;;;5041076;28;20231;-63
2023/07/11 01:55:42;;;;;;;10.40;8.50;;;26.30;82.70;;;;;;5016176;28;20214;-63
2023/07/11 01:58:09;;;;;;;9.53;8.00;;;26.20;82.90;;;;;;5038825;28;20254;-63
2023/07/11 02:00:37;;;;;;;14.37;8.30;;;26.20;83.20;;;;;;5029751;28;20220;-63
2023/07/11 02:03:06;;;;;;;9.53;8.53;;;26.20;83.50;;;;;;5027867;28;20200;-63
2023/07/11 02:05:33;;;;;;;10.60;8.77;;;26.10;83.50;;;;;;5052781;28;20645;-63
2023/07/11 02:08:00;;;;;;;14.53;7.93;;;26.10;83.70;;;;;;5019043;28;20283;-63
2023/07/11 02:10:27;;;;;;;9.13;7.73;;;26.10;83.90;;;;;;5014432;28;20286;-63
2023/07/11 02:12:54;;;;;;;8.67;7.60;;;26.10;84.20;;;;;;5026111;28;20218;-63
2023/07/11 02:15:24;;;;;;;9.10;7.87;;;26.10;84.50;;;;;;5027072;28;20199;-63
2023/07/11 02:17:51;;;;;;;10.07;7.93;;;26.10;84.60;;;;;;5029580;28;20195;-63
2023/07/11 02:20:18;;;;;;;11.83;8.27;;;26.10;84.70;;;;;;5028832;28;20203;-63
2023/07/11 02:22:46;;;;;;;9.07;8.13;;;26.10;84.80;;;;;;5019377;28;20602;-63
2023/07/11 02:25:13;;;;;;;11.37;8.37;;;26.00;84.80;;;;;;5031024;28;20207;-63
2023/07/11 02:27:41;;;;;;;10.20;9.20;;;26.00;84.90;;;;;;5031835;28;20252;-63
2023/07/11 02:30:08;;;;;;;12.20;8.17;;;26.00;84.90;;;;;;5036305;28;20298;-63
2023/07/11 02:32:35;;;;;;;13.53;9.80;;;26.00;85.00;;;;;;5041953;28;20253;-63
2023/07/11 02:35:02;;;;;;;14.57;8.90;;;26.00;85.00;;;;;;5042484;28;20202;-63
2023/07/11 02:37:29;;;;;;;10.83;8.30;;;25.90;85.10;;;;;;5047026;28;20199;-63
2023/07/11 02:39:56;;;;;;;9.00;7.97;;;25.90;85.20;;;;;;5044392;28;20216;-63
2023/07/11 02:42:26;;;;;;;11.00;8.23;;;25.90;85.40;;;;;;5049005;28;20198;-63
2023/07/11 02:44:53;;;;;;;10.07;9.03;;;25.80;85.40;;;;;;5035759;28;20270;-63
2023/07/11 02:47:22;;;;;;;9.73;8.73;;;25.80;85.60;;;;;;5044860;28;20224;-63
2023/07/11 02:49:49;;;;;;;15.60;8.33;;;25.80;85.80;;;;;;5042624;28;20198;-63
2023/07/11 02:52:16;;;;;;;10.07;8.13;;;25.80;86.10;;;;;;5045800;28;20198;-63
2023/07/11 02:54:43;;;;;;;9.33;7.97;;;25.80;86.20;;;;;;5049151;28;20209;-63
2023/07/11 02:57:11;;;;;;;9.47;8.50;;;25.80;86.40;;;;;;5045944;28;20244;-63
2023/07/11 02:59:38;;;;;;;11.83;8.90;;;25.70;86.50;;;;;;5044418;28;20679;-63
2023/07/11 03:02:05;;;;;;;10.33;9.23;;;25.70;86.60;;;;;;5041630;28;20635;-64
2023/07/11 03:04:32;;;;;;;10.53;9.03;;;25.70;86.70;;;;;;5048739;28;20218;-63
2023/07/11 03:07:00;;;;;;;9.77;8.77;;;25.70;86.90;;;;;;5042107;28;20758;-63
2023/07/11 03:09:27;;;;;;;10.83;8.77;;;25.70;87.00;;;;;;5042062;28;20647;-63
2023/07/11 03:11:54;;;;;;;11.93;10.00;;;25.80;87.20;;;;;;5047333;28;20234;-63
2023/07/11 03:14:22;;;;;;;10.63;9.53;;;25.80;87.20;;;;;;5038335;28;20197;-63
2023/07/11 03:16:51;;;;;;;11.40;10.30;;;25.80;87.20;;;;;;5044963;28;20199;-64
2023/07/11 03:19:22;;;;;;;13.10;10.43;;;25.80;87.40;;;;;;5045102;28;20291;-63
2023/07/11 03:21:49;;;;;;;11.83;10.20;;;25.70;87.40;;;;;;5039484;28;20238;-63
2023/07/11 03:24:16;;;;;;;10.73;9.63;;;25.70;87.50;;;;;;5041097;28;20288;-63
2023/07/11 03:26:46;;;;;;;10.93;9.83;;;25.70;88.30;;;;;;5043611;28;20230;-63
2023/07/11 03:29:14;;;;;;;13.07;9.73;;;25.70;87.80;;;;;;5046386;28;20243;-63
2023/07/11 03:31:41;;;;;;;11.77;9.60;;;25.70;87.90;;;;;;5046891;28;20207;-63
2023/07/11 03:34:09;;;;;;;12.23;10.23;;;25.70;88.00;;;;;;5042371;28;20195;-63
2023/07/11 03:36:36;;;;;;;12.20;10.50;;;25.60;88.00;;;;;;5047949;28;20211;-63
2023/07/11 03:39:06;;;;;;;12.63;10.13;;;25.60;88.10;;;;;;5047400;28;20289;-63
2023/07/11 03:41:33;;;;;;;11.13;9.70;;;25.60;88.10;;;;;;5044770;28;20813;-63
2023/07/11 03:44:01;;;;;;;12.60;10.30;;;25.60;88.10;;;;;;5040941;28;20260;-63
2023/07/11 03:46:28;;;;;;;13.97;10.53;;;25.60;88.20;;;;;;5037572;28;20226;-63
2023/07/11 03:48:58;;;;;;;12.07;10.63;;;25.60;88.30;;;;;;5038951;28;20257;-63
2023/07/11 03:51:25;;;;;;;12.73;10.93;;;25.60;88.50;;;;;;5042284;28;20507;-63
2023/07/11 03:53:52;;;;;;;11.40;10.17;;;25.60;88.50;;;;;;5046231;28;20227;-63
2023/07/11 03:56:19;;;;;;;12.47;10.30;;;25.60;88.60;;;;;;5043173;28;20238;-63
2023/07/11 03:58:47;;;;;;;14.00;11.80;;;25.60;88.80;;;;;;5040287;28;20301;-63
2023/07/11 04:01:14;;;;;;;13.00;11.80;;;25.60;88.80;;;;;;5038634;28;20642;-63
2023/07/11 04:03:43;;;;;;;14.40;11.43;;;25.60;88.90;;;;;;5044241;28;20205;-63
2023/07/11 04:06:10;;;;;;;13.17;11.70;;;25.60;89.00;;;;;;5042695;28;20232;-63
2023/07/11 04:08:39;;;;;;;13.47;10.50;;;25.60;89.10;;;;;;5045069;28;20192;-63
2023/07/11 04:11:06;;;;;;;13.50;11.77;;;25.60;89.20;;;;;;5041127;28;20207;-63
2023/07/11 04:13:39;;;;;;;15.07;10.60;;;25.60;89.30;;;;;;5041821;28;20584;-63
2023/07/11 04:16:06;;;;;;;12.37;11.10;;;25.60;89.40;;;;;;5044104;28;20256;-63
2023/07/11 04:18:33;;;;;;;12.80;10.97;;;25.60;89.60;;;;;;5042456;28;20285;-63
2023/07/11 04:21:00;;;;;;;11.37;10.27;;;25.70;89.90;;;;;;5038233;28;20713;-63
2023/07/11 04:23:28;;;;;;;11.93;9.90;;;25.70;90.00;;;;;;5037719;28;20220;-63
2023/07/11 04:25:55;;;;;;;12.67;9.93;;;25.70;90.00;;;;;;5040096;28;20655;-63
2023/07/11 04:28:22;;;;;;;11.20;10.10;;;25.80;90.00;;;;;;5044415;28;20234;-63
2023/07/11 04:30:49;;;;;;;14.97;10.27;;;25.70;90.00;;;;;;5037800;28;20199;-63
2023/07/11 04:33:16;;;;;;;16.63;10.83;;;25.80;90.30;;;;;;5039832;28;20208;-63
2023/07/11 04:35:45;;;;;;;12.63;11.30;;;25.80;90.00;;;;;;5041733;28;20519;-63
2023/07/11 04:38:12;;;;;;;12.97;9.73;;;25.90;90.10;;;;;;5048003;28;20233;-63
2023/07/11 04:40:39;;;;;;;13.37;10.90;;;25.90;90.10;;;;;;5039596;28;20656;-63
2023/07/11 04:43:06;;;;;;;12.23;10.70;;;26.00;90.20;;;;;;5045416;28;20221;-63
2023/07/11 04:45:34;;;;;;;12.83;11.50;;;26.00;90.20;;;;;;5042524;28;20240;-63
2023/07/11 04:48:02;;;;;;;11.80;10.70;;;26.00;90.10;;;;;;5035537;28;20229;-63
2023/07/11 04:50:29;;;;;;;13.10;10.93;;;26.10;90.20;;;;;;5046897;28;20209;-63
2023/07/11 04:52:56;;;;;;;12.27;11.13;;;26.10;90.20;;;;;;5042822;28;20620;-63
2023/07/11 04:55:23;;;;;;;13.70;11.93;;;26.20;90.20;;;;;;5043500;28;20199;-63
2023/07/11 04:57:50;;;;;;;14.40;11.40;;;26.20;90.20;;;;;;5039785;28;20218;-63
2023/07/11 05:00:17;;;;;;;12.20;11.00;;;26.30;90.20;;;;;;5040252;28;20668;-63
2023/07/11 05:02:44;;;;;;;14.10;12.60;;;26.40;90.20;;;;;;5040041;28;20237;-63
2023/07/11 05:05:11;;;;;;;13.73;11.57;;;26.50;90.20;;;;;;5043681;28;20210;-63
2023/07/11 05:07:41;;;;;;;13.07;11.77;;;26.50;90.20;;;;;;5043842;28;20280;-63
2023/07/11 05:10:08;;;;;;;13.70;12.10;;;26.60;90.20;;;;;;5041066;28;20198;-63
2023/07/11 05:12:35;;;;;;;12.87;11.53;;;26.70;90.10;;;;;;5048631;28;20632;-63
2023/07/11 05:15:03;;;;;;;14.87;11.70;;;26.80;90.00;;;;;;5041368;28;20650;-63
2023/07/11 05:17:30;;;;;;;15.17;11.80;;;26.80;90.00;;;;;;5040719;28;20198;-63
2023/07/11 05:19:57;;;;;;;13.60;12.23;;;26.90;90.00;;;;;;5038873;28;20237;-63
2023/07/11 05:22:25;;;;;;;13.03;11.77;;;27.00;90.00;;;;;;5036258;28;20214;-63
2023/07/11 05:24:53;;;;;;;16.33;12.13;;;27.00;89.70;;;;;;5039330;28;20237;-63
2023/07/11 05:27:20;;;;;;;14.03;11.90;;;27.10;89.60;;;;;;5043361;28;20220;-63
2023/07/11 05:29:47;;;;;;;12.67;11.47;;;27.20;89.30;;;;;;5040526;28;20582;-63
2023/07/11 05:32:14;;;;;;;12.37;11.07;;;27.30;89.10;;;;;;5027936;28;20277;-63
2023/07/11 05:34:41;;;;;;;12.93;11.67;;;27.40;88.90;;;;;;5044786;28;20198;-63
2023/07/11 05:37:09;;;;;;;15.13;13.57;;;27.50;88.80;;;;;;5045790;28;20261;-64
2023/07/11 05:39:38;;;;;;;14.37;12.57;;;27.50;88.40;;;;;;5042436;28;20199;-63
2023/07/11 05:42:06;;;;;;;12.50;11.20;;;27.60;88.10;;;;;;5042315;28;20227;-63
2023/07/11 05:44:33;;;;;;;13.47;12.03;;;27.70;88.10;;;;;;5031638;28;20207;-63
2023/07/11 05:47:00;;;;;;;19.40;12.80;;;27.80;88.00;;;;;;5039554;28;20222;-63
2023/07/11 05:49:27;;;;;;;13.33;11.93;;;27.90;87.60;;;;;;5043218;28;20562;-63
2023/07/11 05:51:54;;;;;;;14.17;12.20;;;28.00;87.10;;;;;;5049854;28;20230;-63
2023/07/11 05:54:21;;;;;;;14.00;12.53;;;28.20;86.60;;;;;;5047310;28;20559;-63
2023/07/11 05:56:48;;;;;;;14.53;12.27;;;28.30;86.20;;;;;;5043296;28;20202;-63
2023/07/11 05:59:15;;;;;;;14.23;12.20;;;28.40;85.80;;;;;;5043725;28;20230;-63
2023/07/11 06:01:42;;;;;;;18.00;12.60;;;28.50;85.40;;;;;;5041833;28;20634;-63
2023/07/11 06:04:15;;;;;;;15.37;13.33;;;28.60;84.90;;;;;;5049880;28;20211;-63
2023/07/11 06:06:43;;;;;;;16.53;11.53;;;28.70;83.90;;;;;;5045575;28;20230;-63
2023/07/11 06:09:17;;;;;;;15.30;11.33;;;28.80;83.60;;;;;;5043766;28;20253;-63
2023/07/11 06:11:47;;;;;;;12.60;11.37;;;28.90;83.50;;;;;;5041147;28;20207;-64
2023/07/11 06:14:16;;;;;;;13.57;11.00;;;29.10;82.70;;;;;;5043774;28;20187;-63
2023/07/11 06:16:44;;;;;;;15.57;11.50;;;29.20;82.10;;;;;;5044751;28;20621;-64
2023/07/11 06:19:15;;;;;;;12.77;10.83;;;29.30;82.10;;;;;;5049515;28;20229;-63
2023/07/11 06:21:43;;;;;;;16.87;11.00;;;29.40;81.60;;;;;;5053612;28;20289;-63
2023/07/11 06:24:12;;;;;;;12.80;10.83;;;29.50;81.10;;;;;;5046231;28;20195;-63
2023/07/11 06:26:39;;;;;;;14.43;10.57;;;29.70;80.80;;;;;;5045159;28;20199;-63
2023/07/11 06:29:06;;;;;;;14.27;10.97;;;29.80;80.40;;;;;;5043900;28;20240;-63
2023/07/11 06:31:33;;;;;;;15.17;12.27;;;29.90;79.50;;;;;;5044439;28;20206;-64
2023/07/11 06:34:03;;;;;;;12.53;10.60;;;30.00;78.60;;;;;;5046329;28;20223;-64
2023/07/11 06:36:30;;;;;;;11.10;9.97;;;30.10;78.20;;;;;;5041667;28;20629;-63
2023/07/11 06:38:57;;;;;;;11.97;10.67;;;30.20;78.10;;;;;;5044500;28;20202;-64
2023/07/11 06:41:24;;;;;;;14.90;9.90;;;30.40;77.70;;;;;;5045340;28;20205;-64
2023/07/11 06:43:52;;;;;;;12.20;10.43;;;30.50;77.10;;;;;;5043336;28;20559;-64
2023/07/11 06:46:20;;;;;;;14.27;10.20;;;30.60;76.40;;;;;;5045060;28;20191;-63
2023/07/11 06:48:47;;;;;;;12.30;10.37;;;30.70;76.20;;;;;;5045313;28;20265;-63
2023/07/11 06:51:14;;;;;;;14.33;10.40;;;30.70;76.10;;;;;;5048552;28;20257;-63
2023/07/11 06:53:43;;;;;;;12.37;9.77;;;30.80;76.30;;;;;;5046160;28;20629;-63
2023/07/11 06:56:10;;;;;;;13.83;9.70;;;30.90;76.20;;;;;;5050676;28;20205;-63
2023/07/11 06:58:37;;;;;;;9.63;8.60;;;31.10;75.90;;;;;;5041507;28;20217;-64
2023/07/11 07:01:06;;;;;;;12.80;10.33;;;31.30;75.20;;;;;;5046352;28;20207;-63
2023/07/11 07:03:45;;;;;;;9.77;8.47;;;31.40;74.00;;;;;;5047449;28;20202;-64
2023/07/11 07:06:13;;;;;;;13.57;9.13;;;31.50;73.60;;;;;;5044701;28;20652;-64
2023/07/11 07:08:41;;;;;;;10.17;9.07;;;31.70;72.60;;;;;;5040715;28;20239;-64
2023/07/11 07:11:08;;;;;;;13.30;8.80;;;31.80;72.20;;;;;;5039070;28;20218;-64
2023/07/11 07:13:36;;;;;;;13.77;9.60;;;31.90;72.00;;;;;;5043505;28;20231;-64
2023/07/11 07:16:11;;;;;;;14.00;8.10;;;32.00;71.20;;;;;;5038886;28;20541;-64
2023/07/11 07:18:41;;;;;;;11.20;8.80;;;32.20;71.70;;;;;;5046732;28;20228;-64
2023/07/11 07:21:09;;;;;;;10.60;9.13;;;32.40;70.40;;;;;;5040920;28;20231;-64
2023/07/11 07:23:37;;;;;;;11.00;8.50;;;32.40;70.30;;;;;;5044271;28;20260;-63
2023/07/11 07:26:05;;;;;;;12.53;7.93;;;32.60;69.30;;;;;;5041880;28;20204;-64
2023/07/11 07:28:37;;;;;;;16.93;8.43;;;32.60;69.20;;;;;;5047377;28;20501;-64
2023/07/11 07:31:05;;;;;;;10.27;8.90;;;32.70;68.70;;;;;;5049316;28;20207;-64
2023/07/11 07:33:34;;;;;;;15.40;8.40;;;32.80;67.40;;;;;;5037587;28;20210;-64
2023/07/11 07:36:06;;;;;;;10.97;7.33;;;32.80;67.90;;;;;;5044431;28;20234;-64
2023/07/11 07:38:33;;;;;;;8.43;7.50;;;32.90;68.60;;;;;;5044843;28;20215;-63
2023/07/11 07:41:03;;;;;;;16.03;8.80;;;33.00;68.50;;;;;;5044474;28;20215;-64
2023/07/11 07:43:34;;;;;;;10.23;7.00;;;33.10;66.60;;;;;;5043645;28;20210;-64
2023/07/11 07:46:05;;;;;;;10.03;6.67;;;33.20;66.60;;;;;;5045373;28;20194;-64
2023/07/11 07:48:33;;;;;;;10.93;8.23;;;33.30;66.30;;;;;;5045208;28;20233;-64
2023/07/11 07:51:05;;;;;;;15.67;7.83;;;33.50;65.80;;;;;;5043441;28;20212;-63
2023/07/11 07:53:33;;;;;;;11.43;8.57;;;33.60;65.50;;;;;;5046415;28;20601;-64
2023/07/11 07:56:23;;;;;;;13.10;7.50;;;33.70;65.20;;;;;;5045130;28;20278;-64
2023/07/11 07:58:50;;;;;;;10.47;8.00;;;33.80;64.90;;;;;;5046686;28;20206;-64
2023/07/11 08:01:20;;;;;;;15.00;8.67;;;33.90;64.50;;;;;;5050245;28;20213;-64
2023/07/11 08:03:47;;;;;;;19.17;7.87;;;33.90;64.60;;;;;;5044871;28;20210;-64
2023/07/11 08:06:16;;;;;;;9.33;7.97;;;33.90;64.30;;;;;;5043396;28;20286;-64
2023/07/11 08:08:45;;;;;;;7.67;6.80;;;33.90;64.00;;;;;;5039704;28;20219;-64
2023/07/11 08:11:14;;;;;;;14.00;8.13;;;33.90;64.00;;;;;;5043238;28;20199;-64
2023/07/11 08:13:43;;;;;;;11.17;7.90;;;33.90;62.80;;;;;;5044043;28;20294;-64
2023/07/11 08:16:13;;;;;;;15.07;7.23;;;33.90;63.40;;;;;;5045521;28;20202;-64
2023/07/11 08:18:56;;;;;;;12.53;7.50;;;34.00;64.10;;;;;;5042510;28;20649;-64
2023/07/11 08:21:24;;;;;;;8.77;6.73;;;34.10;64.70;;;;;;5036738;28;20203;-64
2023/07/11 08:23:51;;;;;;;12.95;7.00;;;34.20;64.90;;;;;;5042084;28;20281;-64
2023/07/11 08:26:19;;;;;;;8.57;7.40;;;34.30;64.40;;;;;;5041062;28;20234;-64
2023/07/11 08:28:47;;;;;;;9.30;7.40;;;34.40;63.90;;;;;;5046720;28;20302;-64
2023/07/11 08:31:14;;;;;;;11.70;7.90;;;34.50;62.80;;;;;;5048694;28;20195;-64
2023/07/11 08:33:42;;;;;;;11.57;7.33;;;34.60;62.00;;;;;;5046217;28;20198;-64
2023/07/11 08:36:09;;;;;;;8.90;6.87;;;34.70;61.40;;;;;;5044507;28;20278;-64
2023/07/11 08:38:36;;;;;;;11.50;7.17;;;34.70;61.80;;;;;;5044519;28;20712;-64
2023/07/11 08:41:33;;;;;;;11.53;7.20;;;34.80;62.60;;;;;;5043868;28;20203;-64
2023/07/11 08:44:08;;;;;;;11.50;7.93;;;34.80;61.80;;;;;;5023266;28;20720;-64
2023/07/11 08:46:43;;;;;;;12.73;7.83;;;34.80;61.60;;;;;;5039830;28;20498;-64
2023/07/11 08:49:17;;;;;;;10.50;8.68;;;34.80;61.70;;;;;;5040713;28;20211;-65
2023/07/11 08:51:50;;;;;;;16.35;10.05;;;34.90;61.30;;;;;;5043950;28;20645;-64
2023/07/11 08:54:30;;;;;;;13.33;8.97;;;34.90;61.40;;;;;;5044044;28;20195;-64
2023/07/11 08:57:01;;;;;;;13.60;10.02;;;34.90;61.30;;;;;;5044951;28;20198;-64
2023/07/11 08:59:43;;;;;;;11.80;8.47;;;34.90;61.70;;;;;;5041265;28;20719;-64
2023/07/11 09:02:45;;;;;;;12.65;8.63;;;35.00;62.00;;;;;;5040536;28;20711;-64
2023/07/11 09:05:17;;;;;;;14.83;9.87;;;35.10;61.80;;;;;;5042510;28;20214;-64
2023/07/11 09:07:45;;;;;;;12.27;8.43;;;35.10;61.00;;;;;;5048728;28;20669;-64
2023/07/11 09:10:40;;;;;;;13.67;9.20;;;35.20;61.10;;;;;;5044110;28;20231;-64
2023/07/11 09:13:23;;;;;;;14.00;8.93;;;35.30;60.40;;;;;;5047696;28;20600;-64
2023/07/11 09:16:00;;;;;;;11.63;8.43;;;35.40;59.90;;;;;;5039979;28;20210;-64
2023/07/11 09:18:54;;;;;;;12.30;8.97;;;35.40;59.90;;;;;;5040270;28;20205;-64
2023/07/11 09:21:45;;;;;;;9.60;8.67;;;35.50;60.30;;;;;;5017477;28;20658;-64
2023/07/11 09:24:30;;;;;;;13.83;8.73;;;35.60;60.10;;;;;;5040173;28;20281;-65
2023/07/11 09:27:24;;;;;;;10.70;7.70;;;35.70;58.90;;;;;;5045328;28;20221;-64
2023/07/11 09:29:53;;;;;;;14.55;8.50;;;35.80;59.50;;;;;;4999910;28;20238;-64
2023/07/11 09:32:24;;;;;;;11.95;8.73;;;36.00;58.70;;;;;;5044683;28;20241;-65
2023/07/11 09:34:52;;;;;;;17.85;9.23;;;36.00;58.50;;;;;;5042973;28;20272;-64
2023/07/11 09:37:41;;;;;;;12.05;9.00;;;36.10;58.30;;;;;;5041620;28;20233;-64
2023/07/11 09:40:37;;;;;;;10.43;8.10;;;36.10;57.50;;;;;;5041442;28;20206;-66
2023/07/11 09:43:04;;;;;;;14.15;8.70;;;36.20;57.40;;;;;;5044397;28;20558;-65
2023/07/11 09:45:47;;;;;;;10.90;8.35;;;36.30;57.20;;;;;;5050570;28;20198;-64
2023/07/11 09:48:31;;;;;;;13.30;8.57;;;36.30;57.00;;;;;;5046500;28;20314;-63
2023/07/11 09:51:17;;;;;;;9.38;8.30;;;36.30;57.70;;;;;;5044473;28;20656;-64
2023/07/11 09:53:45;;;;;;;11.95;7.40;;;36.40;57.20;;;;;;5045084;28;20199;-64
2023/07/11 09:56:16;;;;;;;10.93;7.82;;;36.60;57.00;;;;;;5043047;28;20270;-65
2023/07/11 09:58:50;;;;;;;8.77;7.88;;;36.70;56.50;;;;;;5038217;28;20295;-65
2023/07/11 10:01:38;;;;;;;9.88;8.00;;;36.80;56.30;;;;;;5039599;28;20217;-67
2023/07/11 10:04:08;;;;;;;15.05;8.23;;;37.00;57.00;;;;;;5041618;28;20198;-66
2023/07/11 10:06:42;;;;;;;11.88;7.57;;;37.10;56.20;;;;;;5038858;28;20286;-65
2023/07/11 10:09:20;;;;;;;12.18;8.43;;;37.20;55.40;;;;;;5039324;28;20265;-66
2023/07/11 10:11:52;;;;;;;19.60;9.13;;;37.40;55.80;;;;;;5041856;28;20233;-67
2023/07/11 10:14:23;;;;;;;9.85;7.82;;;37.50;56.20;;;;;;5039848;28;20515;-67
2023/07/11 10:16:50;;;;;;;13.48;8.80;;;37.60;55.20;;;;;;5042914;28;20195;-65
2023/07/11 10:19:20;;;;;;;13.13;8.27;;;37.60;55.20;;;;;;5046251;28;20222;-67
2023/07/11 10:21:49;;;;;;;14.55;9.15;;;37.60;55.30;;;;;;5038552;28;20204;-69
2023/07/11 10:24:20;;;;;;;11.80;8.70;;;37.70;54.10;;;;;;5030277;28;20214;-69
2023/07/11 10:26:51;;;;;;;14.63;7.95;;;37.60;54.40;;;;;;5043076;28;20213;-68
2023/07/11 10:29:23;;;;;;;12.93;8.20;;;37.70;55.30;;;;;;5041135;28;20239;-65
2023/07/11 10:32:06;;;;;;;14.07;7.60;;;37.80;55.30;;;;;;5041146;28;20268;-66
2023/07/11 10:34:50;;;;;;;27.60;9.27;;;37.90;54.70;;;;;;5038393;28;20673;-69
2023/07/11 10:37:41;;;;;;;8.15;6.82;;;38.10;55.00;;;;;;5041187;28;20222;-65
2023/07/11 10:40:20;;;;;;;12.48;8.25;;;38.20;54.50;;;;;;5045804;28;20584;-67
2023/07/11 10:43:06;;;;;;;14.05;8.20;;;38.30;54.30;;;;;;5048265;28;20280;-68
2023/07/11 10:45:46;;;;;;;14.45;6.90;;;38.40;53.90;;;;;;5042259;28;20654;-69
2023/07/11 10:48:32;;;;;;;12.13;7.15;;;38.50;54.00;;;;;;5028447;28;20215;-70
2023/07/11 10:51:10;;;;;;;9.18;7.07;;;38.60;53.70;;;;;;5049560;28;20210;-66
2023/07/11 10:53:47;;;;;;;24.38;8.05;;;38.70;53.40;;;;;;5044600;28;20251;-67
2023/07/11 10:56:20;;;;;;;11.75;7.07;;;38.80;53.10;;;;;;5044479;28;20225;-67
2023/07/11 10:58:51;;;;;;;12.38;8.45;;;38.80;52.30;;;;;;5040363;28;20240;-67
2023/07/11 11:01:25;;;;;;;10.05;7.40;;;38.90;52.20;;;;;;5045453;28;20199;-67
2023/07/11 11:04:07;;;;;;;11.35;7.47;;;38.90;52.40;;;;;;5048957;28;20260;-67
2023/07/11 11:07:14;;;;;;;16.27;7.38;;;38.90;51.80;;;;;;5045726;28;20210;-66
2023/07/11 11:09:53;;;;;;;8.00;7.20;;;39.00;51.80;;;;;;5039115;28;20234;-69
2023/07/11 11:12:23;;;;;;;14.25;7.80;;;39.00;51.40;;;;;;5043510;28;20198;-69
2023/07/11 11:15:15;;;;;;;11.38;7.75;;;39.00;51.20;;;;;;5042487;28;20209;-70
2023/07/11 11:18:14;;;;;;;11.15;6.97;;;39.00;51.10;;;;;;5045333;28;20252;-69
2023/07/11 11:20:53;;;;;;;7.55;6.43;;;39.10;50.90;;;;;;5049227;28;20227;-69
2023/07/11 11:23:49;;;;;;;9.25;6.90;;;39.20;50.40;;;;;;5042725;28;20343;-70
2023/07/11 11:26:30;;;;;;;13.07;7.13;;;39.20;50.20;;;;;;5046751;28;20599;-70
2023/07/11 11:29:22;;;;;;;16.85;7.35;;;39.20;50.60;;;;;;5041236;28;20288;-69
2023/07/11 11:32:04;;;;;;;7.97;6.78;;;39.20;51.00;;;;;;5043385;28;20195;-70
2023/07/11 11:34:39;;;;;;;11.20;7.03;;;39.30;51.30;;;;;;5040736;28;20191;-69
2023/07/11 11:37:33;;;;;;;11.20;6.38;;;39.30;50.80;;;;;;5041937;28;20702;-69
2023/07/11 11:40:16;;;;;;;10.25;6.50;;;39.40;49.90;;;;;;5046703;28;20237;-69
2023/07/11 11:42:45;;;;;;;8.30;7.28;;;39.30;50.00;;;;;;5039866;28;20214;-69
2023/07/11 11:45:22;;;;;;;13.70;7.22;;;39.10;50.00;;;;;;5040258;28;20294;-69
2023/07/11 11:47:53;;;;;;;10.55;7.03;;;39.10;50.60;;;;;;5041167;28;20206;-69
2023/07/11 11:50:25;;;;;;;12.98;7.15;;;39.00;50.70;;;;;;5050057;28;20191;-69
2023/07/11 11:53:35;;;;;;;10.63;7.47;;;39.00;50.70;;;;;;5059688;28;20658;-69
2023/07/11 11:56:05;;;;;;;11.10;7.22;;;39.10;49.90;;;;;;5049869;28;20230;-69
2023/07/11 11:58:51;;;;;;;7.38;6.72;;;39.20;49.80;;;;;;5047767;28;20206;-70
2023/07/11 12:01:36;;;;;;;11.50;6.85;;;39.20;49.90;;;;;;5050563;28;20226;-69
2023/07/11 12:04:35;;;;;;;9.77;6.30;;;39.30;49.70;;;;;;5043847;28;20239;-69
2023/07/11 12:07:02;;;;;;;10.27;6.80;;;39.30;49.80;;;;;;5041196;28;20229;-69
2023/07/11 12:09:49;;;;;;;7.93;6.35;;;39.30;49.40;;;;;;5041679;28;20238;-69
2023/07/11 12:12:40;;;;;;;14.40;6.75;;;39.40;49.60;;;;;;5039223;28;20602;-70
2023/07/11 12:15:12;;;;;;;13.05;6.95;;;39.40;48.70;;;;;;5035279;28;20215;-69
2023/07/11 12:17:39;;;;;;;12.50;6.10;;;39.40;48.40;;;;;;5045463;28;20195;-67
2023/07/11 12:20:07;;;;;;;18.73;7.10;;;39.30;48.70;;;;;;5047415;28;20297;-68
2023/07/11 12:22:36;;;;;;;8.70;6.32;;;39.40;48.00;;;;;;5040843;28;20199;-70
2023/07/11 12:25:06;;;;;;;12.30;5.50;;;39.40;48.70;;;;;;5039246;28;20206;-68
2023/07/11 12:27:34;;;;;;;12.73;5.97;;;39.40;48.70;;;;;;5044479;28;20239;-69
2023/07/11 12:30:03;;;;;;;7.00;5.28;;;39.40;48.60;;;;;;5042652;28;20545;-67
2023/07/11 12:32:33;;;;;;;14.68;6.95;;;39.50;48.10;;;;;;5043858;28;20206;-68
2023/07/11 12:35:06;;;;;;;11.00;6.35;;;39.40;46.80;;;;;;5044160;28;20644;-66
2023/07/11 12:37:56;;;;;;;10.80;6.55;;;39.40;47.40;;;;;;5049620;28;20202;-66
2023/07/11 12:40:29;;;;;;;14.68;5.97;;;39.30;47.20;;;;;;5044312;28;20210;-66
2023/07/11 12:42:59;;;;;;;7.75;5.90;;;39.30;48.00;;;;;;5042978;28;20199;-69
2023/07/11 12:45:35;;;;;;;8.43;5.55;;;39.40;47.70;;;;;;5045240;28;20596;-67
2023/07/11 12:48:18;;;;;;;16.23;5.70;;;39.40;47.80;;;;;;5043220;28;20194;-67
2023/07/11 12:50:58;;;;;;;9.98;5.03;;;39.40;47.10;;;;;;5042111;28;20199;-67
2023/07/11 12:53:25;;;;;;;17.30;5.63;;;39.50;47.10;;;;;;5040863;28;20208;-68
2023/07/11 12:55:54;;;;;;;8.60;5.32;;;39.50;47.30;;;;;;5038164;28;20200;-66
2023/07/11 12:58:23;;;;;;;10.82;5.80;;;39.50;46.90;;;;;;5037354;28;20233;-67